Elk — WDH7758 — position and weather

sailwx.info

Track history (hours):
 
Tides and Currents Weather Stations Pressure Air Temp Water Temp Dewpoint Dewpoint Depression Visibility Wind Speed Wind Dir Waves Ship Positions

Elk

Owner: Adriatic Marine LLC, Raceland, LA. More information available from US FCC via Universal Licensing System and Coast Guard Vessel Documentation Center.

Last reported at 2018-May-24 21:27 UTC. Time now 2018-May-26 14:04 UTC.
Position N 29°19' W 094°48'.

Length 58 m; draft 4 m.

Type: Cargo ship. MMSI: 367651380.

Date/timePositionNaut miles runAvg speedWind from/ knotsBaromVisibWave heightAir tempDewpointWater temp
2018-May-24 21:27N 29°19' W 094°48'0 0.0
2018-May-24 17:39N 29°19' W 094°48'0 0.0
2018-May-24 17:21N 29°19' W 094°48'0 0.1
2018-May-24 16:12N 29°19' W 094°48'0 1.2
2018-May-24 16:01N 29°19' W 094°47'1 1.0
2018-May-24 15:16N 29°19' W 094°47'0 0.0
2018-May-24 14:58N 29°19' W 094°47'0 0.0
2018-May-24 14:25N 29°19' W 094°47'0 0.0
2018-May-24 13:58N 29°19' W 094°47'1 0.2
2018-May-24 08:53N 29°19' W 094°48'0 0.0
2018-May-24 07:41N 29°19' W 094°48'0 0.0
2018-May-24 07:05N 29°19' W 094°48'0 0.0
2018-May-24 06:47N 29°19' W 094°48'0 0.0
2018-May-24 06:23N 29°19' W 094°48'0 0.0
2018-May-24 05:11N 29°19' W 094°48'0 0.0
2018-May-24 04:59N 29°19' W 094°48'0 0.0
2018-May-24 04:29N 29°19' W 094°48'0 0.0
2018-May-24 03:59N 29°19' W 094°48'0 0.0
2018-May-24 03:23N 29°19' W 094°48'0 0.0
2018-May-24 02:59N 29°19' W 094°48'0 0.0
2018-May-24 02:17N 29°19' W 094°48'0 0.0
2018-May-24 01:59N 29°19' W 094°48'0 0.0
2018-May-24 01:29N 29°19' W 094°48'0 0.0
2018-May-24 00:59N 29°19' W 094°48'0 0.0
2018-May-24 00:23N 29°19' W 094°48'0 0.0
2018-May-23 23:59N 29°19' W 094°48'0 0.0
2018-May-23 23:23N 29°19' W 094°48'0 0.0
2018-May-23 22:59N 29°19' W 094°48'0 0.0
2018-May-23 22:17N 29°19' W 094°48'0 0.0
2018-May-23 21:56N 29°19' W 094°48'0 0.0
2018-May-23 21:26N 29°19' W 094°48'0 0.0
2018-May-23 20:59N 29°19' W 094°48'0 0.0
2018-May-23 20:29N 29°19' W 094°48'0 0.0
2018-May-23 19:56N 29°19' W 094°48'0 0.0
2018-May-23 19:29N 29°19' W 094°48'0 0.0
2018-May-23 16:38N 29°19' W 094°48'0 0.0
2018-May-23 16:29N 29°19' W 094°48'0 0.0
2018-May-23 15:56N 29°19' W 094°48'0 0.0
2018-May-23 15:17N 29°19' W 094°48'0 0.0
2018-May-23 14:59N 29°19' W 094°48'0 0.0
2018-May-23 14:26N 29°19' W 094°48'0 0.0
2018-May-23 13:59N 29°19' W 094°48'0 0.0
2018-May-23 13:26N 29°19' W 094°48'0 0.0
2018-May-23 12:50N 29°19' W 094°48'0 0.0
2018-May-23 12:26N 29°19' W 094°48'0 0.0
2018-May-23 11:50N 29°19' W 094°48'0 0.0
2018-May-23 11:29N 29°19' W 094°48'0 0.0
2018-May-23 05:53N 29°19' W 094°48'1 1.7
2018-May-23 05:30N 29°19' W 094°47'4 7.1
2018-May-23 04:59N 29°21' W 094°43'11 9.0
2018-May-23 03:46N 29°11' W 094°39'310.5
2018-May-23 03:30N 29°08' W 094°38'510.5
2018-May-23 03:00N 29°03' W 094°38'510.6
2018-May-23 02:29N 28°57' W 094°37'  
2018-May-16 16:51N 27°22' W 094°28'0 0.0
2018-May-16 16:24N 27°22' W 094°28'0 0.0
2018-May-16 15:48N 27°22' W 094°28'0 0.0
2018-May-16 14:21N 27°22' W 094°28'0 0.0
2018-May-16 13:57N 27°22' W 094°28'0 0.0
2018-May-16 13:30N 27°22' W 094°28'0 0.0
2018-May-16 12:51N 27°22' W 094°28'0 0.0
2018-May-16 12:06N 27°22' W 094°28'0 0.0
2018-May-16 11:57N 27°22' W 094°28'0 0.0
2018-May-16 11:18N 27°22' W 094°28'0 0.0
2018-May-16 09:54N 27°22' W 094°28'0 0.0
2018-May-16 09:30N 27°22' W 094°28'0 0.0
2018-May-16 03:12N 27°22' W 094°28'0 0.0
2018-May-15 08:06N 27°22' W 094°28'0 0.0
2018-May-15 08:00N 27°22' W 094°28'  
Track history (hours):
 
Tides and Currents Weather Stations Pressure Air Temp Water Temp Dewpoint Dewpoint Depression Visibility Wind Speed Wind Dir Waves Ship Positions

Elk

Owner: Adriatic Marine LLC, Raceland, LA. More information available from US FCC via Universal Licensing System and Coast Guard Vessel Documentation Center.

Last reported at 2018-May-24 21:27 UTC. Time now 2018-May-26 14:04 UTC.
Position N 29°19' W 094°48'.

Length 58 m; draft 4 m.

Type: Cargo ship. MMSI: 367651380.

Date/timePositionNaut miles runAvg speedWind from/ knotsBaromVisibWave heightAir tempDewpointWater temp
2018-May-24 21:27N 29°19' W 094°48'0 0.0
2018-May-24 17:39N 29°19' W 094°48'0 0.0
2018-May-24 17:21N 29°19' W 094°48'0 0.1
2018-May-24 16:12N 29°19' W 094°48'0 1.2
2018-May-24 16:01N 29°19' W 094°47'1 1.0
2018-May-24 15:16N 29°19' W 094°47'0 0.0
2018-May-24 14:58N 29°19' W 094°47'0 0.0
2018-May-24 14:25N 29°19' W 094°47'0 0.0
2018-May-24 13:58N 29°19' W 094°47'1 0.2
2018-May-24 08:53N 29°19' W 094°48'0 0.0
2018-May-24 07:41N 29°19' W 094°48'0 0.0
2018-May-24 07:05N 29°19' W 094°48'0 0.0
2018-May-24 06:47N 29°19' W 094°48'0 0.0
2018-May-24 06:23N 29°19' W 094°48'0 0.0
2018-May-24 05:11N 29°19' W 094°48'0 0.0
2018-May-24 04:59N 29°19' W 094°48'0 0.0
2018-May-24 04:29N 29°19' W 094°48'0 0.0
2018-May-24 03:59N 29°19' W 094°48'0 0.0
2018-May-24 03:23N 29°19' W 094°48'0 0.0
2018-May-24 02:59N 29°19' W 094°48'0 0.0
2018-May-24 02:17N 29°19' W 094°48'0 0.0
2018-May-24 01:59N 29°19' W 094°48'0 0.0
2018-May-24 01:29N 29°19' W 094°48'0 0.0
2018-May-24 00:59N 29°19' W 094°48'0 0.0
2018-May-24 00:23N 29°19' W 094°48'0 0.0
2018-May-23 23:59N 29°19' W 094°48'0 0.0
2018-May-23 23:23N 29°19' W 094°48'0 0.0
2018-May-23 22:59N 29°19' W 094°48'0 0.0
2018-May-23 22:17N 29°19' W 094°48'0 0.0
2018-May-23 21:56N 29°19' W 094°48'0 0.0
2018-May-23 21:26N 29°19' W 094°48'0 0.0
2018-May-23 20:59N 29°19' W 094°48'0 0.0
2018-May-23 20:29N 29°19' W 094°48'0 0.0
2018-May-23 19:56N 29°19' W 094°48'0 0.0
2018-May-23 19:29N 29°19' W 094°48'0 0.0
2018-May-23 16:38N 29°19' W 094°48'0 0.0
2018-May-23 16:29N 29°19' W 094°48'0 0.0
2018-May-23 15:56N 29°19' W 094°48'0 0.0
2018-May-23 15:17N 29°19' W 094°48'0 0.0
2018-May-23 14:59N 29°19' W 094°48'0 0.0
2018-May-23 14:26N 29°19' W 094°48'0 0.0
2018-May-23 13:59N 29°19' W 094°48'0 0.0
2018-May-23 13:26N 29°19' W 094°48'0 0.0
2018-May-23 12:50N 29°19' W 094°48'0 0.0
2018-May-23 12:26N 29°19' W 094°48'0 0.0
2018-May-23 11:50N 29°19' W 094°48'0 0.0
2018-May-23 11:29N 29°19' W 094°48'0 0.0
2018-May-23 05:53N 29°19' W 094°48'1 1.7
2018-May-23 05:30N 29°19' W 094°47'4 7.1
2018-May-23 04:59N 29°21' W 094°43'11 9.0
2018-May-23 03:46N 29°11' W 094°39'310.5
2018-May-23 03:30N 29°08' W 094°38'510.5
2018-May-23 03:00N 29°03' W 094°38'510.6
2018-May-23 02:29N 28°57' W 094°37'  
2018-May-16 16:51N 27°22' W 094°28'0 0.0
2018-May-16 16:24N 27°22' W 094°28'0 0.0
2018-May-16 15:48N 27°22' W 094°28'0 0.0
2018-May-16 14:21N 27°22' W 094°28'0 0.0
2018-May-16 13:57N 27°22' W 094°28'0 0.0
2018-May-16 13:30N 27°22' W 094°28'0 0.0
2018-May-16 12:51N 27°22' W 094°28'0 0.0
2018-May-16 12:06N 27°22' W 094°28'0 0.0
2018-May-16 11:57N 27°22' W 094°28'0 0.0
2018-May-16 11:18N 27°22' W 094°28'0 0.0
2018-May-16 09:54N 27°22' W 094°28'0 0.0
2018-May-16 09:30N 27°22' W 094°28'0 0.0
2018-May-16 03:12N 27°22' W 094°28'0 0.0
2018-May-15 08:06N 27°22' W 094°28'0 0.0
2018-May-15 08:00N 27°22' W 094°28'  

Dump ship's entire track history